createdAt,value
2018-07-17T00:01:09.135Z,16.30
2018-07-17T00:03:38.375Z,16.30
2018-07-17T00:06:07.661Z,16.20
2018-07-17T00:08:36.895Z,16.20
2018-07-17T00:11:06.159Z,16.20
2018-07-17T00:13:35.411Z,16.20
2018-07-17T00:16:04.716Z,16.10
2018-07-17T00:18:33.964Z,16.10
2018-07-17T00:21:03.155Z,16.10
2018-07-17T00:23:32.375Z,16.00
2018-07-17T00:26:01.520Z,16.00
2018-07-17T00:28:30.759Z,15.90
2018-07-17T00:31:00.000Z,15.90
2018-07-17T00:33:29.291Z,15.90
2018-07-17T00:35:58.547Z,15.90
2018-07-17T00:38:27.847Z,15.80
2018-07-17T00:40:57.067Z,15.80
2018-07-17T00:43:26.251Z,15.80
2018-07-17T00:45:55.455Z,15.80
2018-07-17T00:48:24.721Z,15.70
2018-07-17T00:50:54.196Z,15.70
2018-07-17T00:53:23.471Z,15.70
2018-07-17T00:55:52.589Z,15.70
2018-07-17T00:58:21.897Z,15.70
2018-07-17T01:00:50.163Z,15.60
2018-07-17T01:03:24.344Z,15.60
2018-07-17T01:05:58.552Z,15.60
2018-07-17T01:08:32.920Z,15.50
2018-07-17T01:11:07.211Z,15.50
2018-07-17T01:13:41.472Z,15.50
2018-07-17T01:16:10.800Z,15.50
2018-07-17T01:18:39.952Z,15.50
2018-07-17T01:21:09.184Z,15.40
2018-07-17T01:23:38.407Z,15.40
2018-07-17T01:26:07.664Z,15.40
2018-07-17T01:28:36.847Z,15.40
2018-07-17T01:31:06.094Z,15.30
2018-07-17T01:33:35.300Z,15.20
2018-07-17T01:36:04.536Z,15.20
2018-07-17T01:38:33.780Z,15.20
2018-07-17T01:41:02.901Z,15.10
2018-07-17T01:43:32.158Z,15.10
2018-07-17T01:46:01.424Z,15.00
2018-07-17T01:48:30.658Z,15.00
2018-07-17T01:50:59.923Z,15.00
2018-07-17T01:53:29.512Z,15.00
2018-07-17T01:55:58.744Z,15.00
2018-07-17T01:58:27.928Z,15.00
2018-07-17T02:00:57.114Z,14.90
2018-07-17T02:03:26.318Z,14.90
2018-07-17T02:05:55.532Z,14.90
2018-07-17T02:08:24.765Z,14.90
2018-07-17T02:10:54.003Z,14.80
2018-07-17T02:13:23.158Z,14.80
2018-07-17T02:15:52.402Z,14.70
2018-07-17T02:18:21.558Z,14.60
2018-07-17T02:20:50.739Z,14.60
2018-07-17T02:23:19.871Z,14.50
2018-07-17T02:25:49.050Z,14.40
2018-07-17T02:28:18.214Z,14.40
2018-07-17T02:30:47.435Z,14.40
2018-07-17T02:33:16.620Z,14.40
2018-07-17T02:35:45.939Z,14.30
2018-07-17T02:38:15.191Z,14.30
2018-07-17T02:40:44.308Z,14.30
2018-07-17T02:43:13.449Z,14.20
2018-07-17T02:45:42.672Z,14.20
2018-07-17T02:48:12.036Z,14.10
2018-07-17T02:50:41.264Z,14.20
2018-07-17T02:53:10.471Z,14.10
2018-07-17T02:55:39.624Z,14.10
2018-07-17T02:58:08.880Z,14.00
2018-07-17T03:00:38.232Z,14.00
2018-07-17T03:03:07.603Z,14.00
2018-07-17T03:05:36.772Z,14.00
2018-07-17T03:08:05.987Z,14.00
2018-07-17T03:10:35.205Z,13.90
2018-07-17T03:13:04.418Z,13.90
2018-07-17T03:15:33.602Z,13.90
2018-07-17T03:18:03.588Z,13.90
2018-07-17T03:20:32.802Z,13.80
2018-07-17T03:25:30.740Z,13.80
2018-07-17T03:28:00.009Z,13.80
2018-07-17T03:30:29.187Z,13.80
2018-07-17T03:32:58.946Z,13.80
2018-07-17T03:35:28.454Z,13.80
2018-07-17T03:37:57.768Z,13.70
2018-07-17T03:40:30.959Z,13.70
2018-07-17T03:43:00.156Z,13.70
2018-07-17T03:45:29.301Z,13.70
2018-07-17T03:47:58.523Z,13.70
2018-07-17T03:50:27.717Z,13.70
2018-07-17T03:52:56.952Z,13.70
2018-07-17T03:55:26.164Z,13.70
2018-07-17T03:57:55.474Z,13.70
2018-07-17T04:02:54.462Z,13.70
2018-07-17T04:05:23.683Z,13.70
2018-07-17T04:07:52.936Z,13.60
2018-07-17T04:10:22.492Z,13.70
2018-07-17T04:12:51.734Z,13.60
2018-07-17T04:15:20.951Z,13.60
2018-07-17T04:17:50.188Z,13.50
2018-07-17T04:20:19.767Z,13.60
2018-07-17T04:22:48.936Z,13.50
2018-07-17T04:25:18.127Z,13.60
2018-07-17T04:27:47.309Z,13.60
2018-07-17T04:30:16.627Z,13.60
2018-07-17T04:32:45.995Z,13.50
2018-07-17T04:35:15.222Z,13.60
2018-07-17T04:37:45.635Z,13.50
2018-07-17T04:40:14.803Z,13.50
2018-07-17T04:42:44.079Z,13.50
2018-07-17T04:45:13.223Z,13.50
2018-07-17T04:47:42.477Z,13.60
2018-07-17T04:50:11.691Z,13.60
2018-07-17T04:52:40.912Z,13.70
2018-07-17T04:55:10.141Z,13.70
2018-07-17T04:57:39.411Z,13.80
2018-07-17T05:00:09.862Z,13.80
2018-07-17T05:02:40.499Z,13.80
2018-07-17T05:07:38.427Z,13.90
2018-07-17T05:10:08.307Z,13.90
2018-07-17T05:12:37.554Z,14.00
2018-07-17T05:15:06.823Z,14.10
2018-07-17T05:17:36.022Z,14.10
2018-07-17T05:20:05.412Z,14.20
2018-07-17T05:22:34.594Z,14.30
2018-07-17T05:27:32.468Z,14.40
2018-07-17T05:30:02.085Z,14.50
2018-07-17T05:32:31.280Z,14.60
2018-07-17T05:35:00.530Z,14.70
2018-07-17T05:39:58.743Z,14.80
2018-07-17T05:42:27.928Z,15.00
2018-07-17T05:44:57.018Z,15.00
2018-07-17T05:47:26.195Z,15.10
2018-07-17T05:49:55.450Z,15.20
2018-07-17T05:52:25.742Z,15.30
2018-07-17T05:54:54.996Z,15.40
2018-07-17T05:57:24.238Z,15.50
2018-07-17T05:59:54.103Z,15.50
2018-07-17T06:02:23.355Z,15.70
2018-07-17T06:04:52.600Z,15.70
2018-07-17T06:07:21.818Z,15.80
2018-07-17T06:09:51.126Z,15.90
2018-07-17T06:12:20.402Z,16.00
2018-07-17T06:14:49.692Z,16.10
2018-07-17T06:17:18.823Z,16.20
2018-07-17T06:19:48.057Z,16.30
2018-07-17T06:22:17.303Z,16.40
2018-07-17T06:24:46.595Z,16.50
2018-07-17T06:27:15.848Z,16.60
2018-07-17T06:29:45.135Z,16.80
2018-07-17T06:32:14.332Z,16.90
2018-07-17T06:34:44.445Z,17.00
2018-07-17T06:37:14.214Z,17.20
2018-07-17T06:39:46.159Z,17.30
2018-07-17T06:42:15.462Z,17.40
2018-07-17T06:44:44.789Z,17.50
2018-07-17T06:47:16.189Z,17.60
2018-07-17T06:49:45.783Z,17.80
2018-07-17T06:52:15.064Z,17.90
2018-07-17T06:54:44.219Z,18.00
2018-07-17T06:57:13.413Z,18.10
2018-07-17T06:59:42.770Z,18.20
2018-07-17T07:02:12.131Z,18.40
2018-07-17T07:04:43.576Z,18.40
2018-07-17T07:07:12.875Z,18.60
2018-07-17T07:09:42.124Z,18.70
2018-07-17T07:12:13.395Z,18.80
2018-07-17T07:14:43.038Z,18.90
2018-07-17T07:17:12.253Z,19.00
2018-07-17T07:19:41.921Z,19.10
2018-07-17T07:22:11.203Z,19.20
2018-07-17T07:24:40.450Z,19.30
2018-07-17T07:27:09.787Z,19.50
2018-07-17T07:29:39.043Z,19.60
2018-07-17T07:32:08.975Z,19.70
2018-07-17T07:34:38.360Z,19.80
2018-07-17T07:37:10.430Z,19.90
2018-07-17T07:39:39.813Z,20.00
2018-07-17T07:42:09.574Z,20.10
2018-07-17T07:44:38.908Z,20.20
2018-07-17T07:47:13.180Z,20.30
2018-07-17T07:49:42.474Z,20.50
2018-07-17T07:52:11.724Z,20.60
2018-07-17T07:57:10.068Z,20.80
2018-07-17T07:59:39.493Z,21.00
2018-07-17T08:02:08.879Z,21.10
2018-07-17T08:04:38.267Z,21.20
2018-07-17T08:07:07.591Z,21.30
2018-07-17T08:09:37.281Z,21.50
2018-07-17T08:12:06.649Z,21.60
2018-07-17T08:14:36.118Z,21.70
2018-07-17T08:17:06.165Z,21.80
2018-07-17T08:19:37.871Z,21.90
2018-07-17T08:22:07.333Z,22.00
2018-07-17T08:24:36.527Z,22.20
2018-07-17T08:27:06.337Z,22.30
2018-07-17T08:29:35.530Z,22.40
2018-07-17T08:32:05.299Z,22.60
2018-07-17T08:34:34.763Z,22.70
2018-07-17T08:37:04.051Z,22.80
2018-07-17T08:39:33.322Z,22.90
2018-07-17T08:42:02.492Z,23.00
2018-07-17T08:44:31.867Z,23.10
2018-07-17T08:47:01.151Z,23.30
2018-07-17T08:49:30.427Z,23.40
2018-07-17T08:51:59.727Z,23.50
2018-07-17T08:54:28.988Z,23.70
2018-07-17T08:56:58.255Z,23.80
2018-07-17T08:59:27.495Z,23.90
2018-07-17T09:01:56.820Z,24.00
2018-07-17T09:04:26.060Z,24.10
2018-07-17T09:06:55.316Z,24.20
2018-07-17T09:09:24.635Z,24.30
2018-07-17T09:11:55.475Z,24.40
2018-07-17T09:14:24.688Z,24.40
2018-07-17T09:16:54.380Z,24.40
2018-07-17T09:19:23.687Z,24.50
2018-07-17T09:21:53.143Z,24.60
2018-07-17T09:24:22.368Z,24.70
2018-07-17T09:26:51.598Z,24.70
2018-07-17T09:29:20.872Z,24.70
2018-07-17T09:31:50.391Z,24.80
2018-07-17T09:34:20.588Z,24.90
2018-07-17T09:36:51.018Z,24.90
2018-07-17T09:39:21.549Z,25.00
2018-07-17T09:41:50.870Z,25.00
2018-07-17T09:44:20.390Z,25.10
2018-07-17T09:46:49.580Z,25.20
2018-07-17T09:49:18.881Z,25.30
2018-07-17T09:51:48.157Z,25.30
2018-07-17T09:54:17.483Z,25.40
2018-07-17T09:56:46.835Z,25.50
2018-07-17T09:59:16.042Z,25.50
2018-07-17T10:01:50.559Z,25.60
2018-07-17T10:04:19.764Z,25.60
2018-07-17T10:06:48.996Z,25.60
2018-07-17T10:09:18.195Z,25.70
2018-07-17T10:11:47.395Z,25.70
2018-07-17T10:14:16.578Z,25.60
2018-07-17T10:16:45.858Z,25.60
2018-07-17T10:19:15.050Z,25.60
2018-07-17T10:21:44.472Z,25.60
2018-07-17T10:24:14.444Z,25.70
2018-07-17T10:26:43.783Z,25.70
2018-07-17T10:29:13.576Z,25.80
2018-07-17T10:31:42.907Z,25.90
2018-07-17T10:34:12.169Z,25.90
2018-07-17T10:36:41.515Z,25.80
2018-07-17T10:39:11.548Z,25.80
2018-07-17T10:41:40.926Z,25.70
2018-07-17T10:44:10.482Z,25.70
2018-07-17T10:46:40.129Z,25.60
2018-07-17T10:49:09.455Z,25.50
2018-07-17T10:51:38.851Z,25.50
2018-07-17T10:54:08.279Z,25.50
2018-07-17T10:56:37.837Z,25.50
2018-07-17T10:59:07.186Z,25.60
2018-07-17T11:01:37.047Z,25.70
2018-07-17T11:04:06.517Z,25.80
2018-07-17T11:06:37.534Z,25.90
2018-07-17T11:09:07.329Z,26.10
2018-07-17T11:11:36.567Z,26.30
2018-07-17T11:14:05.864Z,26.30
2018-07-17T11:16:35.112Z,26.30
2018-07-17T11:19:04.394Z,26.30
2018-07-17T11:21:33.550Z,26.40
2018-07-17T11:24:02.895Z,26.50
2018-07-17T11:26:32.015Z,26.50
2018-07-17T11:29:01.180Z,26.50
2018-07-17T11:31:30.363Z,26.50
2018-07-17T11:33:59.612Z,26.50
2018-07-17T11:36:28.828Z,26.50
2018-07-17T11:38:58.068Z,26.60
2018-07-17T11:41:27.269Z,26.60
2018-07-17T11:43:56.808Z,26.70
2018-07-17T11:46:26.731Z,26.80
2018-07-17T11:48:56.100Z,26.90
2018-07-17T11:51:25.340Z,27.10
2018-07-17T11:53:54.575Z,27.10
2018-07-17T11:56:23.805Z,27.20
2018-07-17T12:01:22.004Z,27.40
2018-07-17T12:03:51.469Z,27.40
2018-07-17T12:06:21.166Z,27.50
2018-07-17T12:08:50.571Z,27.50
2018-07-17T12:11:20.061Z,27.50
2018-07-17T12:13:49.487Z,27.60
2018-07-17T12:16:19.041Z,27.60
2018-07-17T12:18:48.742Z,27.70
2018-07-17T12:21:17.966Z,27.70
2018-07-17T12:23:47.286Z,27.80
2018-07-17T12:26:16.568Z,27.80
2018-07-17T12:28:45.785Z,27.80
2018-07-17T12:31:14.957Z,27.80
2018-07-17T12:33:44.214Z,27.80
2018-07-17T12:36:13.354Z,28.00
2018-07-17T12:38:42.562Z,28.10
2018-07-17T12:41:11.808Z,28.30
2018-07-17T12:43:40.965Z,28.50
2018-07-17T12:46:10.160Z,28.60
2018-07-17T12:48:39.757Z,28.80
2018-07-17T12:51:08.975Z,28.90
2018-07-17T12:53:38.304Z,29.00
2018-07-17T12:56:07.783Z,29.10
2018-07-17T12:58:38.794Z,29.20
2018-07-17T13:03:36.915Z,29.60
2018-07-17T13:06:06.123Z,29.60
2018-07-17T13:08:35.389Z,29.60
2018-07-17T13:11:04.829Z,29.60
2018-07-17T13:13:34.032Z,29.60
2018-07-17T13:16:05.245Z,29.60
2018-07-17T13:18:34.795Z,29.60
2018-07-17T13:21:03.988Z,29.60
2018-07-17T13:23:33.237Z,29.70
2018-07-17T13:26:02.459Z,29.80
2018-07-17T13:28:31.564Z,29.90
2018-07-17T13:31:00.839Z,29.90
2018-07-17T13:33:30.022Z,30.00
2018-07-17T13:35:59.339Z,30.00
2018-07-17T13:38:28.541Z,29.90
2018-07-17T13:40:58.753Z,29.80
2018-07-17T13:43:27.964Z,29.80
2018-07-17T13:45:58.920Z,29.90
2018-07-17T13:48:28.404Z,29.90
2018-07-17T13:50:58.775Z,29.90
2018-07-17T13:53:28.679Z,30.10
2018-07-17T13:55:57.986Z,30.20
2018-07-17T13:58:27.137Z,30.10
2018-07-17T14:05:55.347Z,29.70
2018-07-17T14:08:24.559Z,29.60
2018-07-17T14:10:53.932Z,29.50
2018-07-17T14:13:23.100Z,29.60
2018-07-17T14:15:54.394Z,29.60
2018-07-17T14:18:25.055Z,29.70
2018-07-17T14:20:54.311Z,29.80
2018-07-17T14:23:23.508Z,29.90
2018-07-17T14:25:52.773Z,29.90
2018-07-17T14:28:21.929Z,29.90
2018-07-17T14:30:51.211Z,29.90
2018-07-17T14:33:21.647Z,29.90
2018-07-17T14:35:50.946Z,29.90
2018-07-17T14:38:20.086Z,29.90
2018-07-17T14:40:49.373Z,30.00
2018-07-17T14:43:18.592Z,30.10
2018-07-17T14:45:47.779Z,30.10
2018-07-17T14:48:17.008Z,30.10
2018-07-17T14:50:46.359Z,30.10
2018-07-17T14:53:15.644Z,30.10
2018-07-17T14:55:45.059Z,30.00
2018-07-17T14:58:14.410Z,30.00
2018-07-17T15:00:43.767Z,29.90
2018-07-17T15:03:12.991Z,29.90
2018-07-17T15:05:43.611Z,29.90
2018-07-17T15:10:42.018Z,29.90
2018-07-17T15:13:12.557Z,29.90
2018-07-17T15:15:42.651Z,29.90
2018-07-17T15:18:12.420Z,29.80
2018-07-17T15:20:42.101Z,29.80
2018-07-17T15:23:11.807Z,29.80
2018-07-17T15:25:43.391Z,29.70
2018-07-17T15:28:15.947Z,29.60
2018-07-17T15:30:47.472Z,29.50
2018-07-17T15:33:17.321Z,29.30
2018-07-17T15:38:16.103Z,29.10
2018-07-17T15:40:45.340Z,29.00
2018-07-17T15:43:14.622Z,28.90
2018-07-17T15:45:43.910Z,28.80
2018-07-17T15:48:13.225Z,28.70
2018-07-17T15:50:42.528Z,28.70
2018-07-17T15:53:11.944Z,28.60
2018-07-17T15:58:14.539Z,28.40
2018-07-17T16:00:43.787Z,28.30
2018-07-17T16:05:41.883Z,28.20
2018-07-17T16:08:11.070Z,28.20
2018-07-17T16:10:40.396Z,28.10
2018-07-17T16:13:09.755Z,28.10
2018-07-17T16:15:38.993Z,28.00
2018-07-17T16:18:08.397Z,27.90
2018-07-17T16:20:37.558Z,27.80
2018-07-17T16:23:07.045Z,27.70
2018-07-17T16:25:36.255Z,27.60
2018-07-17T16:28:05.538Z,27.50
2018-07-17T16:30:34.777Z,27.40
2018-07-17T16:33:04.087Z,27.30
2018-07-17T16:35:33.296Z,27.30
2018-07-17T16:38:02.574Z,27.20
2018-07-17T16:40:31.748Z,27.20
2018-07-17T16:43:01.374Z,27.20
2018-07-17T16:45:30.580Z,27.20
2018-07-17T16:47:59.821Z,27.20
2018-07-17T16:50:29.019Z,27.10
2018-07-17T16:52:59.558Z,27.10
2018-07-17T16:55:28.658Z,27.10
2018-07-17T16:57:58.314Z,27.10
2018-07-17T17:00:27.489Z,27.10
2018-07-17T17:02:56.763Z,27.10
2018-07-17T17:05:26.777Z,27.10
2018-07-17T17:07:56.187Z,27.20
2018-07-17T17:10:25.719Z,27.20
2018-07-17T17:12:55.000Z,27.20
2018-07-17T17:15:24.250Z,27.20
2018-07-17T17:17:53.452Z,27.10
2018-07-17T17:20:23.498Z,27.10
2018-07-17T17:22:52.743Z,27.10
2018-07-17T17:25:22.210Z,27.00
2018-07-17T17:27:51.513Z,27.00
2018-07-17T17:30:20.651Z,26.90
2018-07-17T17:32:49.847Z,26.90
2018-07-17T17:35:19.092Z,26.80
2018-07-17T17:37:49.269Z,26.80
2018-07-17T17:40:18.436Z,26.60
2018-07-17T17:42:47.711Z,26.50
2018-07-17T17:45:16.896Z,26.40
2018-07-17T17:47:46.147Z,26.40
2018-07-17T17:50:15.426Z,26.30
2018-07-17T17:52:44.926Z,26.10
2018-07-17T17:55:14.239Z,26.10
2018-07-17T17:57:43.771Z,26.00
2018-07-17T18:00:13.407Z,26.00
2018-07-17T18:02:43.072Z,26.00
2018-07-17T18:05:12.790Z,25.90
2018-07-17T18:07:42.185Z,25.90
2018-07-17T18:10:11.526Z,25.90
2018-07-17T18:12:44.970Z,25.80
2018-07-17T18:15:14.683Z,25.80
2018-07-17T18:17:43.993Z,25.70
2018-07-17T18:20:13.588Z,25.70
2018-07-17T18:22:42.976Z,25.70
2018-07-17T18:25:12.387Z,25.60
2018-07-17T18:27:42.089Z,25.50
2018-07-17T18:30:11.412Z,25.40
2018-07-17T18:32:40.743Z,25.30
2018-07-17T18:35:10.252Z,25.20
2018-07-17T18:37:39.612Z,25.20
2018-07-17T18:40:08.791Z,25.10
2018-07-17T18:42:38.052Z,25.00
2018-07-17T18:45:07.283Z,25.00
2018-07-17T18:47:43.898Z,24.90
2018-07-17T18:50:13.520Z,24.80
2018-07-17T18:52:43.727Z,24.70
2018-07-17T18:55:16.423Z,24.60
2018-07-17T18:57:45.723Z,24.50
2018-07-17T19:00:15.209Z,24.40
2018-07-17T19:02:44.600Z,24.30
2018-07-17T19:05:16.751Z,24.20
2018-07-17T19:07:46.458Z,24.10
2018-07-17T19:10:16.307Z,24.00
2018-07-17T19:12:45.628Z,23.90
2018-07-17T19:15:14.951Z,23.80
2018-07-17T19:17:44.487Z,23.70
2018-07-17T19:20:13.828Z,23.70
2018-07-17T19:23:00.995Z,23.60
2018-07-17T19:25:30.558Z,23.50
2018-07-17T19:27:59.836Z,23.50
2018-07-17T19:30:29.091Z,23.40
2018-07-17T19:32:58.393Z,23.30
2018-07-17T19:35:27.644Z,23.20
2018-07-17T19:37:59.869Z,23.10
2018-07-17T19:40:29.084Z,23.10
2018-07-17T19:42:58.359Z,23.00
2018-07-17T19:45:27.655Z,22.90
2018-07-17T19:47:57.059Z,22.80
2018-07-17T19:50:26.379Z,22.70
2018-07-17T19:52:55.663Z,22.70
2018-07-17T19:55:24.873Z,22.60
2018-07-17T19:57:54.248Z,22.50
2018-07-17T20:00:23.566Z,22.50
2018-07-17T20:02:52.822Z,22.40
2018-07-17T20:05:22.112Z,22.30
2018-07-17T20:07:51.379Z,22.30
2018-07-17T20:10:20.756Z,22.30
2018-07-17T20:13:03.095Z,22.20
2018-07-17T20:15:32.557Z,22.10
2018-07-17T20:18:01.828Z,22.10
2018-07-17T20:20:31.054Z,22.00
2018-07-17T20:23:00.534Z,21.90
2018-07-17T20:25:29.835Z,21.90
2018-07-17T20:27:59.043Z,21.80
2018-07-17T20:30:28.856Z,21.80
2018-07-17T20:32:58.154Z,21.70
2018-07-17T20:35:27.444Z,21.70
2018-07-17T20:37:58.247Z,21.60
2018-07-17T20:40:27.493Z,21.50
2018-07-17T20:42:56.835Z,21.50
2018-07-17T20:45:26.479Z,21.50
2018-07-17T20:47:55.684Z,21.40
2018-07-17T20:50:24.879Z,21.40
2018-07-17T20:52:54.102Z,21.40
2018-07-17T20:55:25.435Z,21.30
2018-07-17T20:57:54.606Z,21.30
2018-07-17T21:00:23.883Z,21.20
2018-07-17T21:02:53.397Z,21.20
2018-07-17T21:05:22.661Z,21.10
2018-07-17T21:07:51.928Z,21.10
2018-07-17T21:10:21.192Z,21.10
2018-07-17T21:12:50.425Z,21.00
2018-07-17T21:15:19.745Z,21.00
2018-07-17T21:17:48.957Z,21.00
2018-07-17T21:20:18.156Z,20.90
2018-07-17T21:22:47.575Z,20.90
2018-07-17T21:25:16.973Z,20.80
2018-07-17T21:27:46.253Z,20.80
2018-07-17T21:30:15.609Z,20.70
2018-07-17T21:32:44.888Z,20.70
2018-07-17T21:35:14.254Z,20.70
2018-07-17T21:37:43.589Z,20.70
2018-07-17T21:40:13.087Z,20.70
2018-07-17T21:45:11.235Z,20.60
2018-07-17T21:47:40.546Z,20.60
2018-07-17T21:50:09.790Z,20.60
2018-07-17T21:52:39.001Z,20.60
2018-07-17T21:55:08.256Z,20.50
2018-07-17T21:57:37.366Z,20.50
2018-07-17T22:00:09.016Z,20.40
2018-07-17T22:02:38.234Z,20.40
2018-07-17T22:05:07.539Z,20.30
2018-07-17T22:07:36.719Z,20.30
2018-07-17T22:10:05.999Z,20.20
2018-07-17T22:12:35.187Z,20.20
2018-07-17T22:15:04.508Z,20.20
2018-07-17T22:17:33.721Z,20.10
2018-07-17T22:20:02.891Z,20.10
2018-07-17T22:22:32.140Z,20.10
2018-07-17T22:25:01.361Z,20.10
2018-07-17T22:27:30.657Z,20.10
2018-07-17T22:29:59.906Z,20.10
2018-07-17T22:32:29.398Z,20.20
2018-07-17T22:34:58.642Z,20.20
2018-07-17T22:37:27.913Z,20.20
2018-07-17T22:39:57.212Z,20.20
2018-07-17T22:42:26.557Z,20.20
2018-07-17T22:44:56.275Z,20.10
2018-07-17T22:47:25.693Z,20.10
2018-07-17T22:49:55.043Z,20.00
2018-07-17T22:52:24.369Z,20.00
2018-07-17T22:54:53.728Z,20.00
2018-07-17T22:57:23.062Z,20.00
2018-07-17T22:59:52.456Z,20.00
2018-07-17T23:02:22.332Z,20.00
2018-07-17T23:04:51.527Z,19.90
2018-07-17T23:07:20.799Z,20.00
2018-07-17T23:09:50.031Z,20.00
2018-07-17T23:12:19.288Z,20.10
2018-07-17T23:14:48.509Z,20.10
2018-07-17T23:17:17.734Z,20.20
2018-07-17T23:19:46.981Z,20.20
2018-07-17T23:22:20.423Z,20.20
2018-07-17T23:24:49.616Z,20.20
2018-07-17T23:27:18.952Z,20.20
2018-07-17T23:29:48.166Z,20.30
2018-07-17T23:32:17.440Z,20.30
2018-07-17T23:34:46.669Z,20.30
2018-07-17T23:37:15.923Z,20.30
2018-07-17T23:39:45.100Z,20.30
2018-07-17T23:42:14.358Z,20.30
2018-07-17T23:44:43.627Z,20.30
2018-07-17T23:47:12.883Z,20.30
2018-07-17T23:49:43.970Z,20.40
2018-07-17T23:52:13.177Z,20.30
2018-07-17T23:57:11.226Z,20.40
2018-07-17T23:59:40.662Z,20.30
